Time;durP1;ratioP1;P1;durP2;ratioP2;P2;SDS_P1;SDS_P2;PMS_P1;PMS_P2;Temp;Humidity;BMP_temperature;BMP_pressure;BME280_temperature;BME280_humidity;BME280_pressure;Samples;Min_cycle;Max_cycle;Signal;HPM_P1;HPM_P2
2022/10/02 00:01:23;;;;;;;;;;;16.30;99.90;;;;;;5093381;28;19912;-75
2022/10/02 00:03:51;;;;;;;;;;;16.30;99.90;;;;;;5083078;28;19982;-79
2022/10/02 00:06:21;;;;;;;;;;;16.40;99.90;;;;;;5074103;28;19925;-75
2022/10/02 00:08:49;;;;;;;;;;;16.60;99.90;;;;;;5087976;28;20280;-77
2022/10/02 00:11:18;;;;;;;;;;;16.80;99.90;;;;;;5088362;28;19924;-79
2022/10/02 00:13:53;;;;;;;;;;;17.10;98.60;;;;;;5085190;28;20381;-78
2022/10/02 00:16:20;;;;;;;;;;;17.30;98.30;;;;;;5081663;28;20002;-78
2022/10/02 00:18:48;;;;;;;;;;;17.60;97.60;;;;;;5094459;28;19999;-74
2022/10/02 00:21:32;;;;;;;;;;;17.70;97.60;;;;;;5076632;28;20280;-77
2022/10/02 00:24:04;;;;;;;;;;;17.90;97.40;;;;;;5094524;28;20382;-77
2022/10/02 00:26:36;;;;;;;;;;;17.80;96.40;;;;;;5094445;28;19920;-74
2022/10/02 00:29:02;;;;;;;;;;;17.80;96.40;;;;;;5094374;28;19912;-76
2022/10/02 00:31:32;;;;;;;;;;;17.60;96.60;;;;;;5093452;28;19920;-75
2022/10/02 00:34:08;;;;;;;;;;;17.60;96.60;;;;;;5094107;28;20272;-79
2022/10/02 00:36:47;;;;;;;;;;;17.50;96.50;;;;;;5093884;28;20063;-76
2022/10/02 00:39:25;;;;;;;;;;;17.40;97.00;;;;;;5089992;28;21831;-81
2022/10/02 00:41:58;;;;;;;;;;;17.50;98.10;;;;;;5090044;28;19957;-77
2022/10/02 00:44:40;;;;;;;;;;;17.50;97.80;;;;;;5090242;28;20003;-75
2022/10/02 00:47:42;;;;;;;;;;;17.50;97.90;;;;;;5084065;28;19916;-75
2022/10/02 00:50:20;;;;;;;;;;;17.60;97.80;;;;;;5010619;28;19920;-79
2022/10/02 00:52:56;;;;;;;;;;;17.70;97.90;;;;;;5073928;28;19924;-77
2022/10/02 00:55:29;;;;;;;;;;;17.50;97.50;;;;;;5075500;28;19969;-78
2022/10/02 00:58:02;;;;;;;;;;;17.40;97.20;;;;;;5094004;28;20345;-74
2022/10/02 01:00:29;;;;;;;;;;;17.40;97.20;;;;;;5093714;28;19909;-78
2022/10/02 01:03:04;;;;;;;;;;;17.30;97.50;;;;;;5093387;28;19971;-79
2022/10/02 01:05:32;;;;;;;;;;;17.30;97.90;;;;;;5078154;28;19978;-78
2022/10/02 01:07:59;;;;;;;;;;;17.30;97.60;;;;;;5072909;28;19935;-74
2022/10/02 01:10:26;;;;;;;;;;;17.30;97.50;;;;;;5076853;28;19908;-76
2022/10/02 01:12:54;;;;;;;;;;;17.50;97.30;;;;;;5093436;28;19908;-76
2022/10/02 01:15:22;;;;;;;;;;;17.60;97.20;;;;;;5075047;28;19908;-79
2022/10/02 01:17:50;;;;;;;;;;;17.70;96.90;;;;;;5093230;28;19961;-79
2022/10/02 01:20:22;;;;;;;;;;;17.70;96.90;;;;;;5092788;28;19995;-74
2022/10/02 01:22:54;;;;;;;;;;;17.90;96.10;;;;;;5075214;28;19908;-75
2022/10/02 01:25:20;;;;;;;;;;;17.90;96.40;;;;;;5073123;28;19923;-75
2022/10/02 01:27:47;;;;;;;;;;;17.90;95.70;;;;;;5072952;28;19908;-76
2022/10/02 01:30:15;;;;;;;;;;;18.00;95.90;;;;;;5071967;28;19908;-75
2022/10/02 01:32:47;;;;;;;;;;;18.00;95.70;;;;;;5072729;28;19909;-75
2022/10/02 01:35:13;;;;;;;;;;;18.00;95.30;;;;;;5078584;28;19959;-76
2022/10/02 01:37:42;;;;;;;;;;;18.20;95.10;;;;;;5092649;28;19909;-77
2022/10/02 01:40:10;;;;;;;;;;;18.50;94.60;;;;;;5072486;28;19909;-73
2022/10/02 01:42:38;;;;;;;;;;;18.70;94.20;;;;;;5072038;28;19917;-74
2022/10/02 01:45:06;;;;;;;;;;;18.80;93.40;;;;;;5072369;28;20372;-76
2022/10/02 01:47:38;;;;;;;;;;;18.60;93.60;;;;;;5080783;28;20010;-76
2022/10/02 01:50:05;;;;;;;;;;;18.60;94.80;;;;;;5092455;28;20409;-77
2022/10/02 01:52:35;;;;;;;;;;;19.00;93.80;;;;;;5092443;28;19914;-77
2022/10/02 01:55:07;;;;;;;;;;;19.40;93.40;;;;;;5089880;28;19923;-78
2022/10/02 01:57:40;;;;;;;;;;;19.40;92.50;;;;;;5072143;28;19909;-74
2022/10/02 02:00:17;;;;;;;;;;;19.60;92.20;;;;;;5072378;28;19923;-79
2022/10/02 02:02:44;;;;;;;;;;;19.40;92.10;;;;;;5071870;28;19908;-74
2022/10/02 02:05:25;;;;;;;;;;;19.30;92.20;;;;;;5076470;28;19916;-76
2022/10/02 02:08:18;;;;;;;;;;;19.40;92.10;;;;;;5091203;28;20210;-75
2022/10/02 02:10:48;;;;;;;;;;;19.30;92.20;;;;;;5088759;28;20020;-74
2022/10/02 02:13:25;;;;;;;;;;;19.30;92.30;;;;;;5091532;28;20359;-76
2022/10/02 02:15:56;;;;;;;;;;;19.20;92.00;;;;;;5092432;28;19912;-76
2022/10/02 02:18:34;;;;;;;;;;;19.50;93.00;;;;;;5092262;28;19997;-76
2022/10/02 02:21:08;;;;;;;;;;;19.60;92.40;;;;;;5092401;28;19919;-72
2022/10/02 02:23:37;;;;;;;;;;;20.10;92.30;;;;;;5092459;28;19954;-75
2022/10/02 02:26:07;;;;;;;;;;;20.40;91.70;;;;;;5092226;28;19923;-74
2022/10/02 02:28:35;;;;;;;;;;;20.50;92.30;;;;;;5092398;28;19908;-75
2022/10/02 02:31:02;;;;;;;;;;;20.40;92.30;;;;;;5091741;28;19931;-72
2022/10/02 02:33:31;;;;;;;;;;;20.50;92.10;;;;;;5092170;28;19908;-74
2022/10/02 02:36:00;;;;;;;;;;;20.60;91.50;;;;;;5092122;28;19916;-72
2022/10/02 02:38:30;;;;;;;;;;;21.10;91.50;;;;;;5091834;28;19908;-75
2022/10/02 02:41:00;;;;;;;;;;;21.80;90.90;;;;;;5092017;28;19915;-75
2022/10/02 02:43:31;;;;;;;;;;;22.50;91.90;;;;;;5072977;28;20396;-74
2022/10/02 02:46:02;;;;;;;;;;;22.00;91.60;;;;;;5071069;28;19928;-74
2022/10/02 02:48:35;;;;;;;;;;;20.90;92.70;;;;;;5071366;28;19916;-76
2022/10/02 02:51:06;;;;;;;;;;;20.10;93.90;;;;;;5071788;28;19908;-77
2022/10/02 02:53:40;;;;;;;;;;;19.80;94.20;;;;;;5071594;28;19995;-73
2022/10/02 02:56:09;;;;;;;;;;;19.40;94.90;;;;;;5071690;28;19956;-76
2022/10/02 02:58:56;;;;;;;;;;;19.10;95.20;;;;;;5071542;28;19913;-71
2022/10/02 03:01:23;;;;;;;;;;;18.90;95.40;;;;;;5071665;28;19915;-77
2022/10/02 03:03:50;;;;;;;;;;;18.60;96.00;;;;;;5071306;28;19908;-75
2022/10/02 03:06:17;;;;;;;;;;;18.50;96.00;;;;;;5071327;28;20270;-74
2022/10/02 03:08:45;;;;;;;;;;;18.30;96.20;;;;;;5071795;28;19991;-75
2022/10/02 03:11:30;;;;;;;;;;;18.20;96.00;;;;;;5071717;28;20360;-75
2022/10/02 03:14:27;;;;;;;;;;;18.10;96.90;;;;;;5071661;28;19988;-75
2022/10/02 03:17:12;;;;;;;;;;;18.00;97.20;;;;;;5071553;28;20253;-73
2022/10/02 03:19:51;;;;;;;;;;;18.20;97.40;;;;;;5071519;28;19958;-74
2022/10/02 03:22:35;;;;;;;;;;;18.90;96.30;;;;;;5071164;28;19909;-71
2022/10/02 03:25:25;;;;;;;;;;;19.90;94.90;;;;;;5071610;28;19956;-75
2022/10/02 03:27:54;;;;;;;;;;;21.30;93.20;;;;;;5042937;28;19908;-76
2022/10/02 03:30:23;;;;;;;;;;;22.80;91.10;;;;;;5071151;28;19909;-75
2022/10/02 03:32:55;;;;;;;;;;;23.70;90.00;;;;;;5086221;28;19908;-73
2022/10/02 03:35:23;;;;;;;;;;;24.30;86.10;;;;;;5089961;28;20375;-72
2022/10/02 03:37:56;;;;;;;;;;;24.50;84.50;;;;;;5088019;28;20033;-75
2022/10/02 03:40:23;;;;;;;;;;;25.10;82.50;;;;;;5074294;28;19913;-74
2022/10/02 03:42:50;;;;;;;;;;;25.50;80.10;;;;;;5090605;28;20604;-77
2022/10/02 03:45:18;;;;;;;;;;;25.90;79.00;;;;;;5074848;28;20329;-75
2022/10/02 03:47:45;;;;;;;;;;;26.20;78.10;;;;;;5093718;28;20330;-75
2022/10/02 03:50:12;;;;;;;;;;;26.50;75.70;;;;;;5076642;28;19926;-73
2022/10/02 03:52:39;;;;;;;;;;;26.30;75.70;;;;;;5087888;28;19919;-78
2022/10/02 03:55:17;;;;;;;;;;;26.30;75.30;;;;;;5091721;28;20002;-77
2022/10/02 03:57:44;;;;;;;;;;;26.50;76.00;;;;;;5061542;28;19920;-74
2022/10/02 04:00:12;;;;;;;;;;;26.70;74.00;;;;;;5094818;28;19978;-76
2022/10/02 04:02:44;;;;;;;;;;;26.80;74.30;;;;;;5094562;28;19912;-76
2022/10/02 04:05:19;;;;;;;;;;;27.20;74.20;;;;;;5094565;28;19912;-74
2022/10/02 04:07:48;;;;;;;;;;;27.50;71.60;;;;;;5094509;28;20283;-74
2022/10/02 04:10:22;;;;;;;;;;;27.40;70.70;;;;;;5088877;28;19958;-75
2022/10/02 04:12:51;;;;;;;;;;;26.50;72.50;;;;;;5090962;28;20015;-75
2022/10/02 04:15:24;;;;;;;;;;;26.00;74.00;;;;;;5107409;28;19939;-75
2022/10/02 04:17:54;;;;;;;;;;;25.50;73.20;;;;;;5115055;28;20283;-75
2022/10/02 04:20:23;;;;;;;;;;;24.90;76.00;;;;;;5114868;28;19914;-77
2022/10/02 04:22:52;;;;;;;;;;;25.10;74.70;;;;;;5114901;28;19908;-77
2022/10/02 04:25:24;;;;;;;;;;;25.90;74.10;;;;;;5114762;28;20352;-73
2022/10/02 04:27:56;;;;;;;;;;;26.60;72.30;;;;;;5111561;28;19908;-75
2022/10/02 04:30:23;;;;;;;;;;;26.60;71.30;;;;;;5073965;28;20269;-78
2022/10/02 04:32:50;;;;;;;;;;;25.90;73.80;;;;;;5076504;28;19909;-78
2022/10/02 04:35:19;;;;;;;;;;;26.60;71.40;;;;;;5073174;28;20292;-76
2022/10/02 04:37:52;;;;;;;;;;;27.00;70.60;;;;;;5073820;28;19936;-75
2022/10/02 04:40:37;;;;;;;;;;;27.30;71.10;;;;;;5073858;28;19955;-75
2022/10/02 04:43:03;;;;;;;;;;;27.60;69.60;;;;;;5073175;28;19940;-75
2022/10/02 04:45:30;;;;;;;;;;;27.70;69.90;;;;;;5073462;28;19973;-75
2022/10/02 04:48:03;;;;;;;;;;;28.00;69.20;;;;;;5073853;28;19912;-78
2022/10/02 04:50:47;;;;;;;;;;;28.50;70.00;;;;;;5077116;28;19908;-77
2022/10/02 04:53:32;;;;;;;;;;;28.40;66.70;;;;;;5092599;28;20023;-72
2022/10/02 04:56:07;;;;;;;;;;;27.90;69.10;;;;;;5093786;28;19930;-76
2022/10/02 04:58:49;;;;;;;;;;;28.00;66.90;;;;;;5093724;28;19909;-76
2022/10/02 05:01:24;;;;;;;;;;;27.80;68.10;;;;;;5093556;28;19908;-76
2022/10/02 05:04:04;;;;;;;;;;;28.00;67.50;;;;;;5092832;28;19915;-75
2022/10/02 05:06:49;;;;;;;;;;;27.80;68.40;;;;;;5093761;28;20035;-74
2022/10/02 05:09:27;;;;;;;;;;;28.00;68.40;;;;;;5079602;28;19908;-77
2022/10/02 05:12:03;;;;;;;;;;;27.70;68.50;;;;;;5089781;28;19920;-75
2022/10/02 05:14:44;;;;;;;;;;;27.70;68.10;;;;;;5076696;28;19920;-78
2022/10/02 05:17:11;;;;;;;;;;;27.40;68.90;;;;;;5087355;28;19913;-75
2022/10/02 05:19:52;;;;;;;;;;;27.40;69.70;;;;;;5088653;28;20307;-73
2022/10/02 05:22:29;;;;;;;;;;;27.40;68.40;;;;;;5089852;28;19915;-76
2022/10/02 05:25:11;;;;;;;;;;;26.40;69.50;;;;;;5093320;28;19920;-76
2022/10/02 05:27:58;;;;;;;;;;;26.10;69.80;;;;;;5093165;28;19915;-73
2022/10/02 05:30:27;;;;;;;;;;;26.20;71.90;;;;;;5092923;28;19909;-71
2022/10/02 05:32:54;;;;;;;;;;;26.60;69.80;;;;;;5092593;28;19919;-77
2022/10/02 05:35:24;;;;;;;;;;;27.00;68.60;;;;;;5093188;28;19989;-77
2022/10/02 05:37:56;;;;;;;;;;;27.20;68.20;;;;;;5092065;28;19950;-75
2022/10/02 05:40:26;;;;;;;;;;;27.30;68.40;;;;;;5086313;28;20564;-75
2022/10/02 05:43:03;;;;;;;;;;;27.60;67.70;;;;;;5091562;28;19912;-81
2022/10/02 05:45:36;;;;;;;;;;;27.80;67.10;;;;;;5090667;28;19920;-77
2022/10/02 05:48:22;;;;;;;;;;;27.50;67.40;;;;;;5092341;28;19929;-78
2022/10/02 05:50:51;;;;;;;;;;;27.70;67.40;;;;;;5092777;28;19916;-73
2022/10/02 05:53:32;;;;;;;;;;;27.50;67.30;;;;;;5092759;28;19908;-74
2022/10/02 05:56:03;;;;;;;;;;;27.50;66.90;;;;;;5093066;28;19961;-74
2022/10/02 05:58:29;;;;;;;;;;;27.50;68.00;;;;;;5092940;28;19950;-75
2022/10/02 06:01:05;;;;;;;;;;;27.50;67.10;;;;;;5092812;28;19908;-76
2022/10/02 06:03:37;;;;;;;;;;;27.60;67.10;;;;;;5092001;28;19908;-75
2022/10/02 06:06:14;;;;;;;;;;;27.70;67.30;;;;;;5091743;28;20379;-75
2022/10/02 06:08:57;;;;;;;;;;;27.60;66.90;;;;;;5092332;28;19995;-75
2022/10/02 06:11:26;;;;;;;;;;;27.30;69.30;;;;;;5092387;28;19918;-75
2022/10/02 06:14:00;;;;;;;;;;;27.40;68.30;;;;;;5076218;28;19908;-73
2022/10/02 06:16:35;;;;;;;;;;;27.30;69.00;;;;;;5092227;28;19912;-73
2022/10/02 06:19:14;;;;;;;;;;;27.50;65.90;;;;;;5092262;28;19935;-73
2022/10/02 06:22:06;;;;;;;;;;;27.10;65.70;;;;;;5091428;28;19908;-76
2022/10/02 06:24:37;;;;;;;;;;;26.60;67.60;;;;;;5088327;28;19961;-74
2022/10/02 06:27:10;;;;;;;;;;;26.60;69.60;;;;;;5092612;28;20358;-74
2022/10/02 06:29:41;;;;;;;;;;;26.20;68.40;;;;;;5092426;28;19908;-75
2022/10/02 06:32:23;;;;;;;;;;;25.90;70.40;;;;;;5092039;28;19961;-73
2022/10/02 06:34:50;;;;;;;;;;;26.10;69.50;;;;;;5092097;28;20355;-73
2022/10/02 06:37:32;;;;;;;;;;;26.20;68.80;;;;;;5092026;28;19915;-73
2022/10/02 06:40:13;;;;;;;;;;;26.30;68.10;;;;;;5091830;28;19908;-74
2022/10/02 06:42:57;;;;;;;;;;;26.30;67.10;;;;;;5091581;28;20370;-73
2022/10/02 06:45:23;;;;;;;;;;;26.30;68.00;;;;;;5091855;28;20018;-75
2022/10/02 06:48:05;;;;;;;;;;;26.10;69.40;;;;;;5091862;28;20265;-72
2022/10/02 06:50:39;;;;;;;;;;;25.90;70.20;;;;;;5091722;28;19908;-73
2022/10/02 06:53:24;;;;;;;;;;;25.60;69.40;;;;;;5091551;28;19908;-74
2022/10/02 06:56:13;;;;;;;;;;;25.50;70.50;;;;;;5091465;28;19912;-73
2022/10/02 06:58:40;;;;;;;;;;;25.00;72.00;;;;;;5091301;28;20022;-75
2022/10/02 07:01:21;;;;;;;;;;;24.60;71.90;;;;;;5091632;28;19908;-75
2022/10/02 07:04:00;;;;;;;;;;;24.10;73.10;;;;;;5091826;28;20471;-75
2022/10/02 07:06:32;;;;;;;;;;;24.10;72.40;;;;;;5091660;28;19930;-74
2022/10/02 07:09:02;;;;;;;;;;;23.80;73.20;;;;;;5091628;28;20317;-75
2022/10/02 07:11:34;;;;;;;;;;;23.30;73.60;;;;;;5091909;28;19908;-75
2022/10/02 07:14:05;;;;;;;;;;;22.70;75.20;;;;;;5091948;28;19908;-75
2022/10/02 07:16:41;;;;;;;;;;;22.10;76.70;;;;;;5091826;28;19915;-76
2022/10/02 07:19:26;;;;;;;;;;;21.20;78.40;;;;;;5095455;28;19947;-74
2022/10/02 07:22:03;;;;;;;;;;;20.70;82.40;;;;;;5095796;28;19915;-72
2022/10/02 07:24:45;;;;;;;;;;;20.10;81.70;;;;;;5095475;28;19915;-74
2022/10/02 07:27:24;;;;;;;;;;;19.60;83.40;;;;;;5095310;28;19908;-74
2022/10/02 07:29:57;;;;;;;;;;;19.20;84.70;;;;;;5095057;28;19908;-73
2022/10/02 07:32:42;;;;;;;;;;;18.90;85.10;;;;;;5095309;28;19908;-75
2022/10/02 07:35:27;;;;;;;;;;;18.60;86.30;;;;;;5095358;28;19922;-73
2022/10/02 07:37:56;;;;;;;;;;;18.40;87.20;;;;;;5095408;28;19987;-74
2022/10/02 07:40:30;;;;;;;;;;;18.30;88.90;;;;;;5095468;28;19915;-73
2022/10/02 07:43:00;;;;;;;;;;;18.20;88.50;;;;;;5068241;28;19927;-72
2022/10/02 07:45:29;;;;;;;;;;;18.10;89.60;;;;;;5055133;28;19921;-72
2022/10/02 07:48:09;;;;;;;;;;;17.90;89.80;;;;;;5054736;28;20162;-75
2022/10/02 07:50:53;;;;;;;;;;;17.80;89.80;;;;;;5054464;28;19916;-73
2022/10/02 07:53:38;;;;;;;;;;;17.60;90.10;;;;;;5054765;28;20284;-74
2022/10/02 07:56:07;;;;;;;;;;;17.60;90.50;;;;;;5055053;28;19909;-72
2022/10/02 07:58:41;;;;;;;;;;;17.40;90.90;;;;;;5055118;28;20011;-73
2022/10/02 08:01:13;;;;;;;;;;;17.10;90.80;;;;;;5053371;28;19913;-75
2022/10/02 08:03:59;;;;;;;;;;;17.00;91.20;;;;;;5054544;28;19909;-72
2022/10/02 08:06:26;;;;;;;;;;;16.80;91.50;;;;;;5054424;28;20301;-74
2022/10/02 08:09:22;;;;;;;;;;;16.70;92.00;;;;;;5054422;28;19908;-73
2022/10/02 08:11:54;;;;;;;;;;;16.50;92.30;;;;;;5045301;28;19909;-74
2022/10/02 08:14:20;;;;;;;;;;;16.40;92.50;;;;;;5045959;28;19913;-75
2022/10/02 08:16:48;;;;;;;;;;;16.30;92.90;;;;;;5068711;28;19909;-76
2022/10/02 08:19:17;;;;;;;;;;;16.30;93.20;;;;;;5074150;28;19916;-74
2022/10/02 08:21:57;;;;;;;;;;;16.30;93.10;;;;;;5074543;28;20407;-71
2022/10/02 08:24:30;;;;;;;;;;;16.40;93.30;;;;;;5074233;28;20276;-73
2022/10/02 08:26:58;;;;;;;;;;;16.30;93.40;;;;;;5069076;28;20330;-73
2022/10/02 08:29:45;;;;;;;;;;;16.20;93.80;;;;;;5073626;28;19915;-73
2022/10/02 08:32:12;;;;;;;;;;;16.30;93.70;;;;;;5073783;28;19915;-74
2022/10/02 08:34:40;;;;;;;;;;;16.30;94.10;;;;;;5074171;28;19944;-75
2022/10/02 08:37:06;;;;;;;;;;;16.30;93.80;;;;;;5074523;28;19909;-72
2022/10/02 08:40:00;;;;;;;;;;;16.20;94.00;;;;;;5074136;28;20066;-73
2022/10/02 08:42:45;;;;;;;;;;;16.10;94.30;;;;;;5075717;28;19935;-72
2022/10/02 08:45:32;;;;;;;;;;;16.00;95.00;;;;;;5095421;28;19924;-72
2022/10/02 08:48:19;;;;;;;;;;;16.00;95.20;;;;;;5075512;28;19914;-71
2022/10/02 08:50:52;;;;;;;;;;;15.90;95.50;;;;;;5094220;28;19916;-78
2022/10/02 08:53:34;;;;;;;;;;;15.80;95.70;;;;;;5093751;28;19908;-72
2022/10/02 08:56:22;;;;;;;;;;;15.80;96.00;;;;;;5093906;28;19908;-74
2022/10/02 08:59:07;;;;;;;;;;;15.70;96.30;;;;;;5093896;28;19918;-74
2022/10/02 09:02:02;;;;;;;;;;;15.60;96.60;;;;;;5093644;28;20082;-73
2022/10/02 09:04:34;;;;;;;;;;;15.50;97.00;;;;;;5021673;28;19933;-72
2022/10/02 09:07:17;;;;;;;;;;;15.40;97.40;;;;;;5093828;28;20381;-72
2022/10/02 09:09:46;;;;;;;;;;;15.40;97.60;;;;;;5093641;28;19984;-75
2022/10/02 09:12:31;;;;;;;;;;;15.30;97.90;;;;;;5093467;28;20279;-78
2022/10/02 09:15:06;;;;;;;;;;;15.30;98.20;;;;;;5093622;28;19931;-72
2022/10/02 09:17:44;;;;;;;;;;;15.20;98.50;;;;;;5093675;28;19908;-77
2022/10/02 09:20:28;;;;;;;;;;;15.10;98.70;;;;;;5093470;28;19962;-76
2022/10/02 09:22:58;;;;;;;;;;;15.10;99.00;;;;;;5094093;28;20332;-74
2022/10/02 09:25:34;;;;;;;;;;;15.00;99.10;;;;;;5093760;28;19916;-76
2022/10/02 09:28:20;;;;;;;;;;;15.00;99.30;;;;;;5093555;28;20329;-75
2022/10/02 09:31:03;;;;;;;;;;;15.00;99.60;;;;;;5093248;28;19969;-76
2022/10/02 09:33:48;;;;;;;;;;;14.90;99.80;;;;;;5075119;28;19961;-76
2022/10/02 09:36:34;;;;;;;;;;;14.90;99.90;;;;;;5093513;28;19908;-76
2022/10/02 09:39:17;;;;;;;;;;;14.80;99.90;;;;;;5093054;28;19915;-74
2022/10/02 09:41:48;;;;;;;;;;;14.80;99.90;;;;;;5093140;28;19915;-75
2022/10/02 09:44:22;;;;;;;;;;;14.70;99.90;;;;;;5092545;28;19930;-77
2022/10/02 09:47:10;;;;;;;;;;;14.70;99.90;;;;;;5092222;28;20291;-73
2022/10/02 09:49:56;;;;;;;;;;;14.60;99.90;;;;;;5092854;28;20062;-74
2022/10/02 09:52:41;;;;;;;;;;;14.60;99.90;;;;;;5092634;28;19961;-74
2022/10/02 09:55:17;;;;;;;;;;;14.60;99.90;;;;;;5092774;28;20002;-73
2022/10/02 09:58:02;;;;;;;;;;;14.60;99.90;;;;;;5092743;28;20642;-72
2022/10/02 10:00:40;;;;;;;;;;;14.50;99.90;;;;;;5092431;28;19909;-73
2022/10/02 10:03:21;;;;;;;;;;;14.50;99.90;;;;;;5092547;28;19908;-75
2022/10/02 10:05:49;;;;;;;;;;;14.40;99.90;;;;;;5092471;28;19916;-73
2022/10/02 10:08:34;;;;;;;;;;;14.40;99.90;;;;;;5092218;28;20283;-75
2022/10/02 10:11:18;;;;;;;;;;;14.30;99.90;;;;;;5092213;28;19919;-73
2022/10/02 10:13:54;;;;;;;;;;;14.30;99.90;;;;;;5092199;28;19916;-73
2022/10/02 10:16:40;;;;;;;;;;;14.30;99.90;;;;;;5092406;28;19977;-76
2022/10/02 10:19:06;;;;;;;;;;;14.30;99.90;;;;;;5092294;28;19913;-72
2022/10/02 10:21:45;;;;;;;;;;;14.20;99.90;;;;;;5092123;28;19912;-76
2022/10/02 10:24:18;;;;;;;;;;;14.20;99.90;;;;;;5092009;28;19908;-74
2022/10/02 10:26:59;;;;;;;;;;;14.20;99.90;;;;;;5091346;28;19920;-72
2022/10/02 10:29:55;;;;;;;;;;;14.20;99.90;;;;;;5101848;28;20391;-74
2022/10/02 10:32:37;;;;;;;;;;;14.20;99.90;;;;;;5034637;28;20035;-74
2022/10/02 10:35:16;;;;;;;;;;;14.20;99.90;;;;;;5072197;28;20015;-73
2022/10/02 10:40:42;;;;;;;;;;;14.20;99.90;;;;;;5072071;28;20280;-72
2022/10/02 10:43:13;;;;;;;;;;;14.20;99.90;;;;;;5071573;28;19921;-76
2022/10/02 10:45:58;;;;;;;;;;;14.20;99.90;;;;;;5071433;28;19920;-72
2022/10/02 10:48:44;;;;;;;;;;;14.20;99.90;;;;;;5071839;28;19915;-73
2022/10/02 10:51:29;;;;;;;;;;;14.20;99.90;;;;;;5071867;28;19916;-72
2022/10/02 10:53:59;;;;;;;;;;;14.20;99.90;;;;;;5071892;28;19934;-73
2022/10/02 10:56:54;;;;;;;;;;;14.10;99.90;;;;;;5072052;28;19908;-73
2022/10/02 10:59:30;;;;;;;;;;;14.10;99.90;;;;;;5040617;28;19909;-73
2022/10/02 11:02:01;;;;;;;;;;;14.10;99.90;;;;;;5053345;28;20280;-73
2022/10/02 11:04:28;;;;;;;;;;;14.10;99.90;;;;;;5071717;28;19916;-73
2022/10/02 11:07:06;;;;;;;;;;;14.10;99.90;;;;;;5071696;28;20344;-77
2022/10/02 11:09:46;;;;;;;;;;;14.00;99.90;;;;;;5071664;28;20359;-74
2022/10/02 11:12:20;;;;;;;;;;;14.00;99.90;;;;;;5071791;28;19951;-72
2022/10/02 11:15:04;;;;;;;;;;;14.00;99.90;;;;;;5053417;28;20375;-73
2022/10/02 11:17:39;;;;;;;;;;;14.00;99.90;;;;;;5071491;28;19909;-76
2022/10/02 11:20:09;;;;;;;;;;;14.00;99.90;;;;;;5071633;28;19912;-73
2022/10/02 11:22:36;;;;;;;;;;;13.90;99.90;;;;;;5071570;28;19908;-77
2022/10/02 11:25:21;;;;;;;;;;;13.80;99.90;;;;;;5071594;28;19962;-73
2022/10/02 11:27:50;;;;;;;;;;;13.80;99.90;;;;;;5053798;28;19916;-75
2022/10/02 11:30:23;;;;;;;;;;;13.90;99.90;;;;;;5071371;28;20007;-72
2022/10/02 11:33:02;;;;;;;;;;;13.90;99.90;;;;;;5071091;28;19954;-73
2022/10/02 11:35:47;;;;;;;;;;;13.90;99.90;;;;;;5071362;28;19908;-75
2022/10/02 11:38:14;;;;;;;;;;;13.90;99.90;;;;;;5071472;28;20360;-73
2022/10/02 11:40:53;;;;;;;;;;;13.80;99.90;;;;;;5053295;28;19909;-72
2022/10/02 11:43:21;;;;;;;;;;;13.80;99.90;;;;;;5071178;28;19927;-73
2022/10/02 11:45:48;;;;;;;;;;;13.80;99.90;;;;;;5071185;28;20380;-73
2022/10/02 11:48:20;;;;;;;;;;;13.80;99.90;;;;;;5079400;28;19952;-72
2022/10/02 11:50:53;;;;;;;;;;;13.80;99.90;;;;;;5090956;28;19986;-75
2022/10/02 11:53:28;;;;;;;;;;;13.80;99.90;;;;;;5091562;28;19943;-74
2022/10/02 11:56:07;;;;;;;;;;;13.80;99.90;;;;;;5090626;28;19908;-72
2022/10/02 11:58:52;;;;;;;;;;;13.70;99.90;;;;;;5085455;28;20357;-72
2022/10/02 12:01:21;;;;;;;;;;;13.70;99.90;;;;;;5079493;28;19916;-72
2022/10/02 12:04:07;;;;;;;;;;;13.60;99.90;;;;;;5087679;28;19908;-73
2022/10/02 12:06:43;;;;;;;;;;;13.60;99.90;;;;;;5085956;28;19920;-72
2022/10/02 12:09:09;;;;;;;;;;;13.50;99.90;;;;;;5088919;28;19998;-73
2022/10/02 12:11:42;;;;;;;;;;;13.50;99.90;;;;;;5088634;28;19912;-76
2022/10/02 12:14:17;;;;;;;;;;;13.50;99.90;;;;;;5076399;28;19921;-75
2022/10/02 12:16:50;;;;;;;;;;;13.50;99.90;;;;;;5074297;28;19935;-71
2022/10/02 12:19:17;;;;;;;;;;;13.40;99.90;;;;;;5073174;28;19930;-74
2022/10/02 12:27:35;;;;;;;;;;;13.30;99.90;;;;;;5084493;28;19935;-72
2022/10/02 12:30:02;;;;;;;;;;;13.20;99.90;;;;;;5100186;28;19907;-74
2022/10/02 12:32:48;;;;;;;;;;;13.20;99.90;;;;;;5094166;28;19916;-74
2022/10/02 12:35:30;;;;;;;;;;;13.20;99.90;;;;;;5094473;28;19951;-76
2022/10/02 12:38:03;;;;;;;;;;;13.10;99.90;;;;;;5095464;28;20007;-73
2022/10/02 12:40:32;;;;;;;;;;;13.10;99.90;;;;;;5090643;28;19927;-73
2022/10/02 12:43:34;;;;;;;;;;;13.10;99.90;;;;;;5105773;28;20001;-73
2022/10/02 12:46:16;;;;;;;;;;;13.10;99.90;;;;;;5005828;28;19933;-72
2022/10/02 12:48:53;;;;;;;;;;;13.00;99.90;;;;;;5076951;28;19916;-72
2022/10/02 12:51:20;;;;;;;;;;;13.00;99.90;;;;;;5094944;28;19913;-73
2022/10/02 12:54:06;;;;;;;;;;;13.00;99.90;;;;;;5109800;28;19919;-74
2022/10/02 12:56:51;;;;;;;;;;;12.90;99.90;;;;;;5088332;28;19912;-77
2022/10/02 12:59:36;;;;;;;;;;;12.90;99.90;;;;;;5096628;28;19920;-76
2022/10/02 13:02:04;;;;;;;;;;;12.90;99.90;;;;;;5076943;28;19912;-72
2022/10/02 13:04:43;;;;;;;;;;;12.80;99.90;;;;;;5100523;28;19960;-74
2022/10/02 13:07:29;;;;;;;;;;;12.80;99.90;;;;;;5094591;28;19920;-72
2022/10/02 13:10:15;;;;;;;;;;;12.80;99.90;;;;;;5095121;28;19912;-72
2022/10/02 13:13:05;;;;;;;;;;;12.80;99.90;;;;;;5101066;28;20042;-75
2022/10/02 13:15:36;;;;;;;;;;;12.80;99.90;;;;;;5055810;28;19964;-71
2022/10/02 13:18:09;;;;;;;;;;;12.80;99.90;;;;;;5095524;28;19912;-71
2022/10/02 13:20:43;;;;;;;;;;;12.80;99.90;;;;;;5086053;28;19955;-76
2022/10/02 13:23:13;;;;;;;;;;;12.80;99.90;;;;;;5095629;28;19923;-71
2022/10/02 13:26:05;;;;;;;;;;;12.80;99.90;;;;;;5094271;28;19927;-73
2022/10/02 13:28:32;;;;;;;;;;;12.80;99.90;;;;;;5107377;28;20410;-71
2022/10/02 13:31:15;;;;;;;;;;;12.80;99.90;;;;;;5088295;28;19916;-71
2022/10/02 13:33:55;;;;;;;;;;;12.80;99.90;;;;;;5100935;28;19912;-74
2022/10/02 13:36:42;;;;;;;;;;;12.80;99.90;;;;;;5091317;28;19912;-73
2022/10/02 13:39:27;;;;;;;;;;;12.80;99.90;;;;;;5083546;28;19919;-75
2022/10/02 13:41:59;;;;;;;;;;;12.80;99.90;;;;;;5104039;28;19911;-72
2022/10/02 13:44:29;;;;;;;;;;;12.90;99.90;;;;;;5092440;28;20407;-72
2022/10/02 13:47:04;;;;;;;;;;;12.80;99.90;;;;;;5098216;28;20334;-72
2022/10/02 13:49:36;;;;;;;;;;;12.80;99.90;;;;;;5101991;28;19912;-71
2022/10/02 13:52:10;;;;;;;;;;;12.80;99.90;;;;;;5098295;28;20325;-74
2022/10/02 13:54:47;;;;;;;;;;;12.80;99.90;;;;;;5109048;28;19912;-75
2022/10/02 13:57:40;;;;;;;;;;;12.80;99.90;;;;;;5087328;28;19912;-71
2022/10/02 14:00:19;;;;;;;;;;;12.70;99.90;;;;;;5102289;28;20364;-74
2022/10/02 14:02:58;;;;;;;;;;;12.70;99.90;;;;;;5095730;28;20387;-73
2022/10/02 14:05:37;;;;;;;;;;;12.70;99.90;;;;;;5103135;28;19919;-71
2022/10/02 14:08:07;;;;;;;;;;;12.70;99.90;;;;;;5089014;28;19912;-74
2022/10/02 14:10:44;;;;;;;;;;;12.70;99.90;;;;;;5108877;28;20428;-77
2022/10/02 14:13:10;;;;;;;;;;;12.60;99.90;;;;;;5090663;28;19912;-71
2022/10/02 14:15:55;;;;;;;;;;;12.60;99.90;;;;;;5102476;28;19912;-72
2022/10/02 14:18:28;;;;;;;;;;;12.60;99.90;;;;;;5092340;28;19957;-73
2022/10/02 14:21:03;;;;;;;;;;;12.50;99.90;;;;;;5093175;28;19912;-75
2022/10/02 14:23:36;;;;;;;;;;;12.50;99.90;;;;;;5091589;28;19912;-73
2022/10/02 14:26:15;;;;;;;;;;;12.40;99.90;;;;;;5105270;28;19969;-72
2022/10/02 14:28:54;;;;;;;;;;;12.40;99.90;;;;;;5097452;28;19916;-74
2022/10/02 14:31:21;;;;;;;;;;;12.40;99.90;;;;;;5100023;28;19919;-73
2022/10/02 14:34:14;;;;;;;;;;;12.30;99.90;;;;;;5102982;28;20371;-72
2022/10/02 14:36:43;;;;;;;;;;;12.40;99.90;;;;;;5094884;28;19988;-74
2022/10/02 14:39:30;;;;;;;;;;;12.30;99.90;;;;;;5104629;28;19919;-73
2022/10/02 14:42:12;;;;;;;;;;;12.30;99.90;;;;;;5085589;28;19916;-72
2022/10/02 14:44:48;;;;;;;;;;;12.30;99.90;;;;;;5089522;28;19935;-73
2022/10/02 14:47:33;;;;;;;;;;;12.30;99.90;;;;;;5080918;28;19922;-73
2022/10/02 14:50:12;;;;;;;;;;;12.40;99.90;;;;;;5091869;28;19987;-76
2022/10/02 14:52:48;;;;;;;;;;;12.50;99.90;;;;;;5094274;28;19924;-72
2022/10/02 14:55:15;;;;;;;;;;;12.70;99.90;;;;;;5098588;28;20003;-75
2022/10/02 14:57:47;;;;;;;;;;;12.70;99.90;;;;;;5106886;28;19907;-72
2022/10/02 15:00:16;;;;;;;;;;;12.70;99.90;;;;;;5095883;28;19931;-74
2022/10/02 15:03:01;;;;;;;;;;;12.70;99.90;;;;;;5094807;28;20003;-73
2022/10/02 15:05:33;;;;;;;;;;;12.80;99.90;;;;;;5077579;28;19917;-72
2022/10/02 15:08:02;;;;;;;;;;;12.80;99.90;;;;;;5085283;28;19962;-71
2022/10/02 15:10:34;;;;;;;;;;;12.80;99.90;;;;;;5091859;28;19955;-72
2022/10/02 15:13:07;;;;;;;;;;;12.80;99.90;;;;;;5091956;28;20352;-74